TimePDT,TemperatureF,Dew PointF,Humidity,Sea Level PressureIn,VisibilityMPH,Wind Direction,Wind SpeedMPH,Gust SpeedMPH,PrecipitationIn,Events,Conditions,WindDirDegrees,DateUTC
12:56 AM,48.9,42.1,77,30.30,10.0,NW,3.5,-,N/A,,Overcast,310,2011-10-27 07:56:00
1:56 AM,48.9,42.1,77,30.30,10.0,NNW,4.6,-,N/A,,Overcast,340,2011-10-27 08:56:00
2:56 AM,46.0,41.0,83,30.30,10.0,NNW,3.5,-,N/A,,Scattered Clouds,340,2011-10-27 09:56:00
3:56 AM,45.0,39.9,82,30.29,10.0,NNW,4.6,-,N/A,,Mostly Cloudy,340,2011-10-27 10:56:00
4:56 AM,44.1,41.0,89,30.28,10.0,NNW,3.5,-,N/A,,Clear,330,2011-10-27 11:56:00
5:56 AM,43.0,39.9,89,30.27,10.0,Calm,Calm,-,N/A,,Clear,0,2011-10-27 12:56:00
7:56 AM,39.9,37.9,93,30.26,10.0,NNW,4.6,-,N/A,Fog,Patches of Fog,330,2011-10-27 14:56:00
10:56 AM,50.0,39.9,68,30.26,10.0,NNW,5.8,-,N/A,,Clear,340,2011-10-27 17:56:00
11:56 AM,53.1,41.0,64,30.25,10.0,North,8.1,17.3,N/A,,Clear,10,2011-10-27 18:56:00
12:56 PM,55.0,39.9,57,30.22,10.0,NNW,10.4,-,N/A,,Clear,340,2011-10-27 19:56:00
1:56 PM,57.0,39.0,51,30.17,10.0,North,9.2,-,N/A,,Clear,10,2011-10-27 20:56:00
2:56 PM,57.9,37.9,47,30.15,10.0,North,11.5,-,N/A,,Clear,350,2011-10-27 21:56:00
3:56 PM,57.9,36.0,44,30.14,10.0,North,10.4,-,N/A,,Clear,10,2011-10-27 22:56:00
4:56 PM,55.9,37.0,49,30.12,10.0,NNE,6.9,-,N/A,,Clear,30,2011-10-27 23:56:00
5:56 PM,53.1,37.0,55,30.11,10.0,North,3.5,-,N/A,,Clear,360,2011-10-28 00:56:00
6:56 PM,46.9,37.9,71,30.10,10.0,NNE,3.5,-,N/A,,Clear,20,2011-10-28 01:56:00
7:56 PM,45.0,39.0,80,30.11,10.0,Calm,Calm,-,N/A,,Clear,0,2011-10-28 02:56:00
9:56 PM,43.0,37.9,82,30.09,10.0,Calm,Calm,-,N/A,,Clear,0,2011-10-28 04:56:00
10:56 PM,39.9,37.0,89,30.09,10.0,Calm,Calm,-,N/A,,Clear,0,2011-10-28 05:56:00
11:56 PM,37.9,36.0,93,30.09,10.0,South,3.5,-,N/A,,Clear,190,2011-10-28 06:56:00